sensor_id;sensor_type;location;lat;lon;timestamp;temperature;humidity
4451;DHT22;2238;50.180;9.230;2023-04-15T00:00:54;6.50;99.90
4451;DHT22;2238;50.180;9.230;2023-04-15T00:03:55;6.40;99.90
4451;DHT22;2238;50.180;9.230;2023-04-15T00:06:56;6.30;99.90
4451;DHT22;2238;50.180;9.230;2023-04-15T00:09:57;6.10;99.90
4451;DHT22;2238;50.180;9.230;2023-04-15T00:12:58;5.80;99.90
4451;DHT22;2238;50.180;9.230;2023-04-15T00:15:59;6.60;99.90
4451;DHT22;2238;50.180;9.230;2023-04-15T00:19:00;7.10;99.90
4451;DHT22;2238;50.180;9.230;2023-04-15T00:22:00;6.00;99.90
4451;DHT22;2238;50.180;9.230;2023-04-15T00:25:02;5.80;99.90
4451;DHT22;2238;50.180;9.230;2023-04-15T00:28:03;5.70;99.90
4451;DHT22;2238;50.180;9.230;2023-04-15T00:31:04;5.60;99.90
4451;DHT22;2238;50.180;9.230;2023-04-15T00:34:05;5.50;99.90
4451;DHT22;2238;50.180;9.230;2023-04-15T00:37:05;5.60;99.90
4451;DHT22;2238;50.180;9.230;2023-04-15T00:40:09;8.20;99.90
4451;DHT22;2238;50.180;9.230;2023-04-15T00:43:11;6.00;99.90
4451;DHT22;2238;50.180;9.230;2023-04-15T00:46:12;5.90;99.90
4451;DHT22;2238;50.180;9.230;2023-04-15T00:49:15;7.40;99.90
4451;DHT22;2238;50.180;9.230;2023-04-15T00:52:16;5.60;99.90
4451;DHT22;2238;50.180;9.230;2023-04-15T00:55:17;5.80;99.90
4451;DHT22;2238;50.180;9.230;2023-04-15T00:58:18;5.80;99.90
4451;DHT22;2238;50.180;9.230;2023-04-15T01:01:20;6.70;99.90
4451;DHT22;2238;50.180;9.230;2023-04-15T01:04:21;6.00;99.90
4451;DHT22;2238;50.180;9.230;2023-04-15T01:07:22;7.80;99.90
4451;DHT22;2238;50.180;9.230;2023-04-15T01:10:23;7.00;99.90
4451;DHT22;2238;50.180;9.230;2023-04-15T01:13:23;6.20;99.90
4451;DHT22;2238;50.180;9.230;2023-04-15T01:16:24;6.20;99.90
4451;DHT22;2238;50.180;9.230;2023-04-15T01:19:26;6.30;99.90
4451;DHT22;2238;50.180;9.230;2023-04-15T01:22:27;6.70;99.90
4451;DHT22;2238;50.180;9.230;2023-04-15T01:25:31;6.50;99.90
4451;DHT22;2238;50.180;9.230;2023-04-15T01:28:35;6.60;99.90
4451;DHT22;2238;50.180;9.230;2023-04-15T01:31:37;6.70;99.90
4451;DHT22;2238;50.180;9.230;2023-04-15T01:34:37;6.50;99.90
4451;DHT22;2238;50.180;9.230;2023-04-15T01:37:38;6.50;99.90
4451;DHT22;2238;50.180;9.230;2023-04-15T01:40:39;6.30;99.90
4451;DHT22;2238;50.180;9.230;2023-04-15T01:43:40;6.70;99.90
4451;DHT22;2238;50.180;9.230;2023-04-15T01:46:41;7.00;99.90
4451;DHT22;2238;50.180;9.230;2023-04-15T01:49:41;7.20;99.90
4451;DHT22;2238;50.180;9.230;2023-04-15T01:52:42;8.00;99.90
4451;DHT22;2238;50.180;9.230;2023-04-15T01:55:42;6.10;99.90
4451;DHT22;2238;50.180;9.230;2023-04-15T01:58:43;6.80;99.90
4451;DHT22;2238;50.180;9.230;2023-04-15T02:01:44;5.60;99.90
4451;DHT22;2238;50.180;9.230;2023-04-15T02:04:45;5.80;99.90
4451;DHT22;2238;50.180;9.230;2023-04-15T02:07:47;6.30;99.90
4451;DHT22;2238;50.180;9.230;2023-04-15T02:10:47;6.60;99.90
4451;DHT22;2238;50.180;9.230;2023-04-15T02:13:48;6.60;99.90
4451;DHT22;2238;50.180;9.230;2023-04-15T02:16:49;6.40;99.90
4451;DHT22;2238;50.180;9.230;2023-04-15T02:19:49;6.50;99.90
4451;DHT22;2238;50.180;9.230;2023-04-15T02:22:50;6.30;99.90
4451;DHT22;2238;50.180;9.230;2023-04-15T02:25:51;6.40;99.90
4451;DHT22;2238;50.180;9.230;2023-04-15T02:28:52;6.60;99.90
4451;DHT22;2238;50.180;9.230;2023-04-15T02:31:52;7.60;99.90
4451;DHT22;2238;50.180;9.230;2023-04-15T02:34:53;6.70;99.90
4451;DHT22;2238;50.180;9.230;2023-04-15T02:37:54;6.30;99.90
4451;DHT22;2238;50.180;9.230;2023-04-15T02:40:56;5.90;99.90
4451;DHT22;2238;50.180;9.230;2023-04-15T02:43:57;5.60;99.90
4451;DHT22;2238;50.180;9.230;2023-04-15T02:46:58;6.80;99.90
4451;DHT22;2238;50.180;9.230;2023-04-15T02:49:58;5.80;99.90
4451;DHT22;2238;50.180;9.230;2023-04-15T02:53:01;7.00;99.90
4451;DHT22;2238;50.180;9.230;2023-04-15T02:56:02;6.10;99.90
4451;DHT22;2238;50.180;9.230;2023-04-15T02:59:02;6.00;99.90
4451;DHT22;2238;50.180;9.230;2023-04-15T03:02:04;6.30;99.90
4451;DHT22;2238;50.180;9.230;2023-04-15T03:05:11;5.90;99.90
4451;DHT22;2238;50.180;9.230;2023-04-15T03:08:12;6.20;99.90
4451;DHT22;2238;50.180;9.230;2023-04-15T03:11:14;7.70;99.90
4451;DHT22;2238;50.180;9.230;2023-04-15T03:14:15;7.00;99.90
4451;DHT22;2238;50.180;9.230;2023-04-15T03:17:16;6.30;99.90
4451;DHT22;2238;50.180;9.230;2023-04-15T03:20:17;5.90;99.90
4451;DHT22;2238;50.180;9.230;2023-04-15T03:23:18;5.80;99.90
4451;DHT22;2238;50.180;9.230;2023-04-15T03:26:29;6.90;99.90
4451;DHT22;2238;50.180;9.230;2023-04-15T03:29:30;5.90;99.90
4451;DHT22;2238;50.180;9.230;2023-04-15T03:32:32;5.90;99.90
4451;DHT22;2238;50.180;9.230;2023-04-15T03:35:33;6.00;99.90
4451;DHT22;2238;50.180;9.230;2023-04-15T03:38:34;5.80;99.90
4451;DHT22;2238;50.180;9.230;2023-04-15T03:41:34;5.90;99.90
4451;DHT22;2238;50.180;9.230;2023-04-15T03:44:35;6.00;99.90
4451;DHT22;2238;50.180;9.230;2023-04-15T03:47:36;7.20;99.90
4451;DHT22;2238;50.180;9.230;2023-04-15T03:50:37;5.90;99.90
4451;DHT22;2238;50.180;9.230;2023-04-15T03:53:37;7.70;99.90
4451;DHT22;2238;50.180;9.230;2023-04-15T03:56:38;6.50;99.90
4451;DHT22;2238;50.180;9.230;2023-04-15T03:59:38;6.50;99.90
4451;DHT22;2238;50.180;9.230;2023-04-15T04:02:39;6.40;99.90
4451;DHT22;2238;50.180;9.230;2023-04-15T04:05:39;6.00;99.90
4451;DHT22;2238;50.180;9.230;2023-04-15T04:08:40;5.80;99.90
4451;DHT22;2238;50.180;9.230;2023-04-15T04:11:41;7.70;99.90
4451;DHT22;2238;50.180;9.230;2023-04-15T04:14:42;5.80;99.90
4451;DHT22;2238;50.180;9.230;2023-04-15T04:38:22;5.60;99.90
4451;DHT22;2238;50.180;9.230;2023-04-15T04:41:23;6.70;99.90
4451;DHT22;2238;50.180;9.230;2023-04-15T04:44:23;5.90;99.90
4451;DHT22;2238;50.180;9.230;2023-04-15T04:47:24;7.80;99.90
4451;DHT22;2238;50.180;9.230;2023-04-15T04:50:25;6.20;99.90
4451;DHT22;2238;50.180;9.230;2023-04-15T04:53:26;7.30;99.90
4451;DHT22;2238;50.180;9.230;2023-04-15T04:56:27;6.30;99.90
4451;DHT22;2238;50.180;9.230;2023-04-15T04:59:28;6.40;99.90
4451;DHT22;2238;50.180;9.230;2023-04-15T05:02:28;6.40;99.90
4451;DHT22;2238;50.180;9.230;2023-04-15T05:05:29;6.40;99.90
4451;DHT22;2238;50.180;9.230;2023-04-15T05:08:29;7.90;99.90
4451;DHT22;2238;50.180;9.230;2023-04-15T05:11:30;6.90;99.90
4451;DHT22;2238;50.180;9.230;2023-04-15T05:14:30;7.30;99.90
4451;DHT22;2238;50.180;9.230;2023-04-15T05:17:31;6.50;99.90
4451;DHT22;2238;50.180;9.230;2023-04-15T05:20:34;6.10;99.90
4451;DHT22;2238;50.180;9.230;2023-04-15T05:23:35;8.40;99.90
4451;DHT22;2238;50.180;9.230;2023-04-15T05:26:35;6.40;99.90
4451;DHT22;2238;50.180;9.230;2023-04-15T05:29:36;6.00;99.90
4451;DHT22;2238;50.180;9.230;2023-04-15T05:32:37;6.10;99.90
4451;DHT22;2238;50.180;9.230;2023-04-15T05:35:37;6.80;99.90
4451;DHT22;2238;50.180;9.230;2023-04-15T05:38:38;6.50;99.90
4451;DHT22;2238;50.180;9.230;2023-04-15T05:41:38;7.30;99.90
4451;DHT22;2238;50.180;9.230;2023-04-15T05:44:39;7.70;99.90
4451;DHT22;2238;50.180;9.230;2023-04-15T05:47:39;6.40;99.90
4451;DHT22;2238;50.180;9.230;2023-04-15T05:50:41;7.30;99.90
4451;DHT22;2238;50.180;9.230;2023-04-15T05:53:41;6.30;99.90
4451;DHT22;2238;50.180;9.230;2023-04-15T05:56:42;7.20;99.90
4451;DHT22;2238;50.180;9.230;2023-04-15T05:59:42;6.60;99.90
4451;DHT22;2238;50.180;9.230;2023-04-15T06:02:44;7.40;99.90
4451;DHT22;2238;50.180;9.230;2023-04-15T06:05:44;6.50;99.90
4451;DHT22;2238;50.180;9.230;2023-04-15T06:08:45;6.90;99.90
4451;DHT22;2238;50.180;9.230;2023-04-15T06:11:46;7.40;99.90
4451;DHT22;2238;50.180;9.230;2023-04-15T06:14:46;6.80;99.90
4451;DHT22;2238;50.180;9.230;2023-04-15T06:17:47;7.40;99.90
4451;DHT22;2238;50.180;9.230;2023-04-15T06:20:47;6.40;99.90
4451;DHT22;2238;50.180;9.230;2023-04-15T06:23:49;6.80;99.90
4451;DHT22;2238;50.180;9.230;2023-04-15T06:26:49;6.70;99.90
4451;DHT22;2238;50.180;9.230;2023-04-15T06:29:50;7.60;99.90
4451;DHT22;2238;50.180;9.230;2023-04-15T06:32:51;6.60;99.90
4451;DHT22;2238;50.180;9.230;2023-04-15T06:35:51;7.40;99.90
4451;DHT22;2238;50.180;9.230;2023-04-15T06:38:52;7.10;99.90
4451;DHT22;2238;50.180;9.230;2023-04-15T06:41:53;6.70;99.90
4451;DHT22;2238;50.180;9.230;2023-04-15T06:44:53;7.10;99.90
4451;DHT22;2238;50.180;9.230;2023-04-15T06:47:54;7.70;99.90
4451;DHT22;2238;50.180;9.230;2023-04-15T06:50:54;7.00;99.90
4451;DHT22;2238;50.180;9.230;2023-04-15T06:53:55;7.10;99.90
4451;DHT22;2238;50.180;9.230;2023-04-15T06:56:56;8.90;99.90
4451;DHT22;2238;50.180;9.230;2023-04-15T06:59:57;7.20;99.90
4451;DHT22;2238;50.180;9.230;2023-04-15T07:02:57;7.20;99.90
4451;DHT22;2238;50.180;9.230;2023-04-15T07:05:58;7.20;99.90
4451;DHT22;2238;50.180;9.230;2023-04-15T07:08:59;7.70;99.90
4451;DHT22;2238;50.180;9.230;2023-04-15T07:12:00;7.60;99.90
4451;DHT22;2238;50.180;9.230;2023-04-15T07:15:01;7.00;99.90
4451;DHT22;2238;50.180;9.230;2023-04-15T07:18:01;6.90;99.90
4451;DHT22;2238;50.180;9.230;2023-04-15T07:21:02;6.90;99.90
4451;DHT22;2238;50.180;9.230;2023-04-15T07:24:03;8.80;99.90
4451;DHT22;2238;50.180;9.230;2023-04-15T07:27:04;7.10;99.90
4451;DHT22;2238;50.180;9.230;2023-04-15T07:30:05;8.20;99.90
4451;DHT22;2238;50.180;9.230;2023-04-15T07:33:06;7.70;99.90
4451;DHT22;2238;50.180;9.230;2023-04-15T07:36:06;7.80;99.90
4451;DHT22;2238;50.180;9.230;2023-04-15T07:39:07;7.90;99.90
4451;DHT22;2238;50.180;9.230;2023-04-15T07:42:07;10.00;99.90
4451;DHT22;2238;50.180;9.230;2023-04-15T07:45:09;8.00;99.90
4451;DHT22;2238;50.180;9.230;2023-04-15T07:48:09;7.90;99.90
4451;DHT22;2238;50.180;9.230;2023-04-15T07:51:10;7.90;99.90
4451;DHT22;2238;50.180;9.230;2023-04-15T07:54:12;8.00;99.90
4451;DHT22;2238;50.180;9.230;2023-04-15T07:57:13;7.90;99.90
4451;DHT22;2238;50.180;9.230;2023-04-15T08:00:14;8.40;99.90
4451;DHT22;2238;50.180;9.230;2023-04-15T08:03:15;10.00;99.90
4451;DHT22;2238;50.180;9.230;2023-04-15T08:06:16;10.10;99.90
4451;DHT22;2238;50.180;9.230;2023-04-15T08:09:17;10.00;99.90
4451;DHT22;2238;50.180;9.230;2023-04-15T08:12:17;8.30;99.90
4451;DHT22;2238;50.180;9.230;2023-04-15T08:15:18;8.90;99.90
4451;DHT22;2238;50.180;9.230;2023-04-15T08:18:19;8.40;99.90
4451;DHT22;2238;50.180;9.230;2023-04-15T08:21:20;8.40;99.90
4451;DHT22;2238;50.180;9.230;2023-04-15T08:24:21;8.90;99.90
4451;DHT22;2238;50.180;9.230;2023-04-15T08:27:21;8.50;99.90
4451;DHT22;2238;50.180;9.230;2023-04-15T08:30:22;9.30;99.90
4451;DHT22;2238;50.180;9.230;2023-04-15T08:33:23;9.10;99.90
4451;DHT22;2238;50.180;9.230;2023-04-15T08:36:24;11.20;99.90
4451;DHT22;2238;50.180;9.230;2023-04-15T08:39:24;8.70;99.90
4451;DHT22;2238;50.180;9.230;2023-04-15T08:42:36;8.70;99.90
4451;DHT22;2238;50.180;9.230;2023-04-15T08:45:40;10.90;99.90
4451;DHT22;2238;50.180;9.230;2023-04-15T08:48:42;10.80;99.90
4451;DHT22;2238;50.180;9.230;2023-04-15T08:51:43;10.30;99.90
4451;DHT22;2238;50.180;9.230;2023-04-15T08:54:44;8.80;99.90
4451;DHT22;2238;50.180;9.230;2023-04-15T08:57:45;11.20;99.90
4451;DHT22;2238;50.180;9.230;2023-04-15T09:00:46;9.20;99.90
4451;DHT22;2238;50.180;9.230;2023-04-15T09:03:48;10.90;99.90
4451;DHT22;2238;50.180;9.230;2023-04-15T09:06:49;9.00;99.90
4451;DHT22;2238;50.180;9.230;2023-04-15T09:09:51;11.30;99.90
4451;DHT22;2238;50.180;9.230;2023-04-15T09:12:52;8.90;99.90
4451;DHT22;2238;50.180;9.230;2023-04-15T09:15:52;10.90;99.90
4451;DHT22;2238;50.180;9.230;2023-04-15T09:18:54;9.20;99.90
4451;DHT22;2238;50.180;9.230;2023-04-15T09:21:56;9.20;99.90
4451;DHT22;2238;50.180;9.230;2023-04-15T09:24:57;11.50;99.90
4451;DHT22;2238;50.180;9.230;2023-04-15T09:27:59;9.50;99.90
4451;DHT22;2238;50.180;9.230;2023-04-15T09:31:01;9.60;99.90
4451;DHT22;2238;50.180;9.230;2023-04-15T09:34:02;11.60;99.90
4451;DHT22;2238;50.180;9.230;2023-04-15T09:37:02;10.70;99.90
4451;DHT22;2238;50.180;9.230;2023-04-15T09:40:03;9.90;99.90
4451;DHT22;2238;50.180;9.230;2023-04-15T09:43:05;9.90;99.90
4451;DHT22;2238;50.180;9.230;2023-04-15T09:46:06;9.80;99.90
4451;DHT22;2238;50.180;9.230;2023-04-15T09:49:08;10.00;99.90
4451;DHT22;2238;50.180;9.230;2023-04-15T09:52:13;9.90;99.90
4451;DHT22;2238;50.180;9.230;2023-04-15T09:55:14;9.90;99.90
4451;DHT22;2238;50.180;9.230;2023-04-15T09:58:24;9.90;99.90
4451;DHT22;2238;50.180;9.230;2023-04-15T10:01:25;10.00;99.90
4451;DHT22;2238;50.180;9.230;2023-04-15T10:04:26;11.10;99.90
4451;DHT22;2238;50.180;9.230;2023-04-15T10:07:28;11.90;99.90
4451;DHT22;2238;50.180;9.230;2023-04-15T10:10:29;9.90;99.90
4451;DHT22;2238;50.180;9.230;2023-04-15T10:13:30;11.20;99.90
4451;DHT22;2238;50.180;9.230;2023-04-15T10:16:40;11.20;99.90
4451;DHT22;2238;50.180;9.230;2023-04-15T10:19:42;9.50;99.90
4451;DHT22;2238;50.180;9.230;2023-04-15T10:22:44;9.50;99.90
4451;DHT22;2238;50.180;9.230;2023-04-15T10:25:46;9.20;99.90
4451;DHT22;2238;50.180;9.230;2023-04-15T10:28:48;11.10;99.90
4451;DHT22;2238;50.180;9.230;2023-04-15T10:31:49;9.20;99.90
4451;DHT22;2238;50.180;9.230;2023-04-15T10:34:50;9.10;99.90
4451;DHT22;2238;50.180;9.230;2023-04-15T10:37:51;11.50;99.90
4451;DHT22;2238;50.180;9.230;2023-04-15T10:40:52;11.40;99.90
4451;DHT22;2238;50.180;9.230;2023-04-15T10:44:03;10.40;99.90
4451;DHT22;2238;50.180;9.230;2023-04-15T10:47:12;8.80;99.90
4451;DHT22;2238;50.180;9.230;2023-04-15T10:50:13;8.90;99.90
4451;DHT22;2238;50.180;9.230;2023-04-15T10:53:27;8.90;99.90
4451;DHT22;2238;50.180;9.230;2023-04-15T10:56:28;10.40;99.90
4451;DHT22;2238;50.180;9.230;2023-04-15T11:03:04;9.00;99.90
4451;DHT22;2238;50.180;9.230;2023-04-15T11:06:06;10.30;99.90
4451;DHT22;2238;50.180;9.230;2023-04-15T11:09:06;8.90;99.90
4451;DHT22;2238;50.180;9.230;2023-04-15T11:12:09;9.70;99.90
4451;DHT22;2238;50.180;9.230;2023-04-15T11:18:31;8.80;99.90
4451;DHT22;2238;50.180;9.230;2023-04-15T11:21:32;8.90;99.90
4451;DHT22;2238;50.180;9.230;2023-04-15T11:24:33;8.80;99.90
4451;DHT22;2238;50.180;9.230;2023-04-15T11:27:34;8.90;99.90
4451;DHT22;2238;50.180;9.230;2023-04-15T11:30:36;9.00;99.90
4451;DHT22;2238;50.180;9.230;2023-04-15T11:33:44;9.90;99.90
4451;DHT22;2238;50.180;9.230;2023-04-15T11:36:45;8.60;99.90
4451;DHT22;2238;50.180;9.230;2023-04-15T11:39:46;9.50;99.90
4451;DHT22;2238;50.180;9.230;2023-04-15T11:43:04;9.00;99.90
4451;DHT22;2238;50.180;9.230;2023-04-15T11:46:05;10.90;99.90
4451;DHT22;2238;50.180;9.230;2023-04-15T11:49:06;8.60;99.90
4451;DHT22;2238;50.180;9.230;2023-04-15T11:52:10;8.70;99.90
4451;DHT22;2238;50.180;9.230;2023-04-15T11:55:11;8.50;99.90
4451;DHT22;2238;50.180;9.230;2023-04-15T11:58:20;8.60;99.90
4451;DHT22;2238;50.180;9.230;2023-04-15T12:04:31;8.60;99.90
4451;DHT22;2238;50.180;9.230;2023-04-15T12:07:32;10.10;99.90
4451;DHT22;2238;50.180;9.230;2023-04-15T12:10:33;9.70;99.90
4451;DHT22;2238;50.180;9.230;2023-04-15T12:13:33;8.50;99.90
4451;DHT22;2238;50.180;9.230;2023-04-15T12:16:39;9.50;99.90
4451;DHT22;2238;50.180;9.230;2023-04-15T12:19:41;8.70;99.90
4451;DHT22;2238;50.180;9.230;2023-04-15T12:22:42;8.70;99.90
4451;DHT22;2238;50.180;9.230;2023-04-15T12:25:43;8.60;99.90
4451;DHT22;2238;50.180;9.230;2023-04-15T12:28:43;11.00;99.90
4451;DHT22;2238;50.180;9.230;2023-04-15T12:31:53;8.50;99.90
4451;DHT22;2238;50.180;9.230;2023-04-15T12:34:53;8.60;99.90
4451;DHT22;2238;50.180;9.230;2023-04-15T12:37:54;10.90;99.90
4451;DHT22;2238;50.180;9.230;2023-04-15T12:40:55;8.40;99.90
4451;DHT22;2238;50.180;9.230;2023-04-15T12:43:55;8.60;99.90
4451;DHT22;2238;50.180;9.230;2023-04-15T12:46:56;8.60;99.90
4451;DHT22;2238;50.180;9.230;2023-04-15T12:49:57;8.40;99.90
4451;DHT22;2238;50.180;9.230;2023-04-15T12:52:58;8.40;99.90
4451;DHT22;2238;50.180;9.230;2023-04-15T12:55:58;9.30;99.90
4451;DHT22;2238;50.180;9.230;2023-04-15T12:58:59;8.40;99.90
4451;DHT22;2238;50.180;9.230;2023-04-15T13:01:59;10.40;99.90
4451;DHT22;2238;50.180;9.230;2023-04-15T13:05:01;8.40;99.90
4451;DHT22;2238;50.180;9.230;2023-04-15T13:08:02;8.40;99.90
4451;DHT22;2238;50.180;9.230;2023-04-15T13:11:03;8.30;99.90
4451;DHT22;2238;50.180;9.230;2023-04-15T13:14:06;8.30;99.90
4451;DHT22;2238;50.180;9.230;2023-04-15T13:17:07;8.30;99.90
4451;DHT22;2238;50.180;9.230;2023-04-15T13:20:09;8.30;99.90
4451;DHT22;2238;50.180;9.230;2023-04-15T13:23:10;8.30;99.90
4451;DHT22;2238;50.180;9.230;2023-04-15T13:26:10;8.30;99.90
4451;DHT22;2238;50.180;9.230;2023-04-15T13:29:11;8.20;99.90
4451;DHT22;2238;50.180;9.230;2023-04-15T13:32:13;8.30;99.90
4451;DHT22;2238;50.180;9.230;2023-04-15T13:35:14;8.20;99.90
4451;DHT22;2238;50.180;9.230;2023-04-15T13:38:14;8.20;99.90
4451;DHT22;2238;50.180;9.230;2023-04-15T13:41:15;8.20;99.90
4451;DHT22;2238;50.180;9.230;2023-04-15T13:44:15;8.30;99.90
4451;DHT22;2238;50.180;9.230;2023-04-15T13:47:18;8.20;99.90
4451;DHT22;2238;50.180;9.230;2023-04-15T13:50:19;8.20;99.90
4451;DHT22;2238;50.180;9.230;2023-04-15T13:53:19;8.20;99.90
4451;DHT22;2238;50.180;9.230;2023-04-15T13:56:20;8.30;99.90
4451;DHT22;2238;50.180;9.230;2023-04-15T13:59:21;8.40;99.90
4451;DHT22;2238;50.180;9.230;2023-04-15T14:02:21;8.30;99.90
4451;DHT22;2238;50.180;9.230;2023-04-15T14:05:22;8.30;99.90
4451;DHT22;2238;50.180;9.230;2023-04-15T14:08:24;8.30;99.90
4451;DHT22;2238;50.180;9.230;2023-04-15T14:11:25;8.30;99.90
4451;DHT22;2238;50.180;9.230;2023-04-15T14:14:26;8.20;99.90
4451;DHT22;2238;50.180;9.230;2023-04-15T14:17:26;8.30;99.90
4451;DHT22;2238;50.180;9.230;2023-04-15T14:20:27;10.00;99.90
4451;DHT22;2238;50.180;9.230;2023-04-15T14:23:28;8.30;99.90
4451;DHT22;2238;50.180;9.230;2023-04-15T14:26:28;8.30;99.90
4451;DHT22;2238;50.180;9.230;2023-04-15T14:29:29;9.80;99.90
4451;DHT22;2238;50.180;9.230;2023-04-15T14:32:30;8.30;99.90
4451;DHT22;2238;50.180;9.230;2023-04-15T14:35:31;8.60;99.90
4451;DHT22;2238;50.180;9.230;2023-04-15T14:38:33;9.80;99.90
4451;DHT22;2238;50.180;9.230;2023-04-15T14:41:37;9.10;99.90
4451;DHT22;2238;50.180;9.230;2023-04-15T14:44:38;8.30;99.90
4451;DHT22;2238;50.180;9.230;2023-04-15T14:47:38;10.90;99.90
4451;DHT22;2238;50.180;9.230;2023-04-15T14:50:39;8.40;99.90
4451;DHT22;2238;50.180;9.230;2023-04-15T14:53:40;8.40;99.90
4451;DHT22;2238;50.180;9.230;2023-04-15T14:56:40;8.50;99.90
4451;DHT22;2238;50.180;9.230;2023-04-15T14:59:42;8.50;99.90
4451;DHT22;2238;50.180;9.230;2023-04-15T15:02:43;9.80;99.90
4451;DHT22;2238;50.180;9.230;2023-04-15T15:05:45;9.40;99.90
4451;DHT22;2238;50.180;9.230;2023-04-15T15:08:45;8.60;99.90
4451;DHT22;2238;50.180;9.230;2023-04-15T15:11:46;10.40;99.90
4451;DHT22;2238;50.180;9.230;2023-04-15T15:14:47;8.60;99.90
4451;DHT22;2238;50.180;9.230;2023-04-15T15:17:47;8.60;99.90
4451;DHT22;2238;50.180;9.230;2023-04-15T15:20:48;9.00;99.90
4451;DHT22;2238;50.180;9.230;2023-04-15T15:23:48;10.00;99.90
4451;DHT22;2238;50.180;9.230;2023-04-15T15:26:49;8.60;99.90
4451;DHT22;2238;50.180;9.230;2023-04-15T15:29:50;8.60;99.90
4451;DHT22;2238;50.180;9.230;2023-04-15T15:32:51;8.90;99.90
4451;DHT22;2238;50.180;9.230;2023-04-15T15:35:51;8.60;99.90
4451;DHT22;2238;50.180;9.230;2023-04-15T15:38:52;8.50;99.90
4451;DHT22;2238;50.180;9.230;2023-04-15T15:41:53;8.50;99.90
4451;DHT22;2238;50.180;9.230;2023-04-15T15:44:54;8.80;99.90
4451;DHT22;2238;50.180;9.230;2023-04-15T15:47:54;8.50;99.90
4451;DHT22;2238;50.180;9.230;2023-04-15T15:50:56;10.40;99.90
4451;DHT22;2238;50.180;9.230;2023-04-15T15:53:57;8.50;99.90
4451;DHT22;2238;50.180;9.230;2023-04-15T15:56:57;8.40;99.90
4451;DHT22;2238;50.180;9.230;2023-04-15T15:59:58;8.50;99.90
4451;DHT22;2238;50.180;9.230;2023-04-15T16:02:58;8.50;99.90
4451;DHT22;2238;50.180;9.230;2023-04-15T16:05:59;8.40;99.90
4451;DHT22;2238;50.180;9.230;2023-04-15T16:09:00;8.30;99.90
4451;DHT22;2238;50.180;9.230;2023-04-15T16:12:00;8.80;99.90
4451;DHT22;2238;50.180;9.230;2023-04-15T16:15:03;10.60;99.90
4451;DHT22;2238;50.180;9.230;2023-04-15T16:18:04;8.30;99.90
4451;DHT22;2238;50.180;9.230;2023-04-15T16:21:04;8.40;99.90
4451;DHT22;2238;50.180;9.230;2023-04-15T16:24:06;8.30;99.90
4451;DHT22;2238;50.180;9.230;2023-04-15T16:27:06;8.40;99.90
4451;DHT22;2238;50.180;9.230;2023-04-15T16:30:07;10.50;99.90
4451;DHT22;2238;50.180;9.230;2023-04-15T16:33:08;8.40;99.90
4451;DHT22;2238;50.180;9.230;2023-04-15T16:36:09;9.60;99.90
4451;DHT22;2238;50.180;9.230;2023-04-15T16:39:09;8.40;99.90
4451;DHT22;2238;50.180;9.230;2023-04-15T16:42:10;9.90;99.90
4451;DHT22;2238;50.180;9.230;2023-04-15T16:45:11;10.80;99.90
4451;DHT22;2238;50.180;9.230;2023-04-15T16:48:11;8.50;99.90
4451;DHT22;2238;50.180;9.230;2023-04-15T16:51:12;8.30;99.90
4451;DHT22;2238;50.180;9.230;2023-04-15T16:54:12;9.40;99.90
4451;DHT22;2238;50.180;9.230;2023-04-15T16:57:13;9.40;99.90
4451;DHT22;2238;50.180;9.230;2023-04-15T17:00:14;10.40;99.90
4451;DHT22;2238;50.180;9.230;2023-04-15T17:03:15;8.40;99.90
4451;DHT22;2238;50.180;9.230;2023-04-15T17:06:15;10.00;99.90
4451;DHT22;2238;50.180;9.230;2023-04-15T17:09:16;8.90;99.90
4451;DHT22;2238;50.180;9.230;2023-04-15T17:12:17;8.40;99.90
4451;DHT22;2238;50.180;9.230;2023-04-15T17:15:18;8.40;99.90
4451;DHT22;2238;50.180;9.230;2023-04-15T17:18:19;8.50;99.90
4451;DHT22;2238;50.180;9.230;2023-04-15T17:21:19;8.90;99.90
4451;DHT22;2238;50.180;9.230;2023-04-15T17:24:20;8.30;99.90
4451;DHT22;2238;50.180;9.230;2023-04-15T17:27:21;10.80;99.90
4451;DHT22;2238;50.180;9.230;2023-04-15T17:30:22;10.50;99.90
4451;DHT22;2238;50.180;9.230;2023-04-15T17:33:23;8.40;99.90
4451;DHT22;2238;50.180;9.230;2023-04-15T17:36:23;8.80;99.90
4451;DHT22;2238;50.180;9.230;2023-04-15T17:39:25;8.40;99.90
4451;DHT22;2238;50.180;9.230;2023-04-15T17:42:26;10.60;99.90
4451;DHT22;2238;50.180;9.230;2023-04-15T17:45:27;8.30;99.90
4451;DHT22;2238;50.180;9.230;2023-04-15T17:48:28;8.30;99.90
4451;DHT22;2238;50.180;9.230;2023-04-15T17:51:28;8.40;99.90
4451;DHT22;2238;50.180;9.230;2023-04-15T17:54:29;8.30;99.90
4451;DHT22;2238;50.180;9.230;2023-04-15T17:57:29;8.40;99.90
4451;DHT22;2238;50.180;9.230;2023-04-15T18:00:30;8.40;99.90
4451;DHT22;2238;50.180;9.230;2023-04-15T18:03:31;8.30;99.90
4451;DHT22;2238;50.180;9.230;2023-04-15T18:06:31;8.40;99.90
4451;DHT22;2238;50.180;9.230;2023-04-15T18:09:32;10.80;99.90
4451;DHT22;2238;50.180;9.230;2023-04-15T18:12:33;8.70;99.90
4451;DHT22;2238;50.180;9.230;2023-04-15T18:15:33;8.40;99.90
4451;DHT22;2238;50.180;9.230;2023-04-15T18:18:34;8.60;99.90
4451;DHT22;2238;50.180;9.230;2023-04-15T18:21:35;8.50;99.90
4451;DHT22;2238;50.180;9.230;2023-04-15T18:24:35;8.40;99.90
4451;DHT22;2238;50.180;9.230;2023-04-15T18:27:36;10.90;99.90
4451;DHT22;2238;50.180;9.230;2023-04-15T18:30:39;8.40;99.90
4451;DHT22;2238;50.180;9.230;2023-04-15T18:33:40;8.50;99.90
4451;DHT22;2238;50.180;9.230;2023-04-15T18:36:41;8.40;99.90
4451;DHT22;2238;50.180;9.230;2023-04-15T18:39:42;8.60;99.90
4451;DHT22;2238;50.180;9.230;2023-04-15T18:42:42;9.70;99.90
4451;DHT22;2238;50.180;9.230;2023-04-15T18:45:43;10.50;99.90
4451;DHT22;2238;50.180;9.230;2023-04-15T18:48:44;8.40;99.90
4451;DHT22;2238;50.180;9.230;2023-04-15T18:51:45;8.90;99.90
4451;DHT22;2238;50.180;9.230;2023-04-15T18:54:46;8.30;99.90
4451;DHT22;2238;50.180;9.230;2023-04-15T18:57:46;8.40;99.90
4451;DHT22;2238;50.180;9.230;2023-04-15T19:00:47;9.20;99.90
4451;DHT22;2238;50.180;9.230;2023-04-15T19:03:47;8.30;99.90
4451;DHT22;2238;50.180;9.230;2023-04-15T19:06:49;10.60;99.90
4451;DHT22;2238;50.180;9.230;2023-04-15T19:09:50;8.60;99.90
4451;DHT22;2238;50.180;9.230;2023-04-15T19:12:50;10.70;99.90
4451;DHT22;2238;50.180;9.230;2023-04-15T19:15:51;8.30;99.90
4451;DHT22;2238;50.180;9.230;2023-04-15T19:18:52;8.30;99.90
4451;DHT22;2238;50.180;9.230;2023-04-15T19:21:52;8.30;99.90
4451;DHT22;2238;50.180;9.230;2023-04-15T19:24:53;8.30;99.90
4451;DHT22;2238;50.180;9.230;2023-04-15T19:27:54;8.30;99.90
4451;DHT22;2238;50.180;9.230;2023-04-15T19:30:54;8.70;99.90
4451;DHT22;2238;50.180;9.230;2023-04-15T19:33:55;9.90;99.90
4451;DHT22;2238;50.180;9.230;2023-04-15T19:36:56;8.30;99.90
4451;DHT22;2238;50.180;9.230;2023-04-15T19:39:56;8.30;99.90
4451;DHT22;2238;50.180;9.230;2023-04-15T19:42:57;8.40;99.90
4451;DHT22;2238;50.180;9.230;2023-04-15T19:45:57;10.80;99.90
4451;DHT22;2238;50.180;9.230;2023-04-15T19:48:58;8.90;99.90
4451;DHT22;2238;50.180;9.230;2023-04-15T19:51:59;8.40;99.90
4451;DHT22;2238;50.180;9.230;2023-04-15T19:55:00;10.40;99.90
4451;DHT22;2238;50.180;9.230;2023-04-15T19:58:00;8.30;99.90
4451;DHT22;2238;50.180;9.230;2023-04-15T20:01:01;8.40;99.90
4451;DHT22;2238;50.180;9.230;2023-04-15T20:04:02;8.30;99.90
4451;DHT22;2238;50.180;9.230;2023-04-15T20:07:03;8.30;99.90
4451;DHT22;2238;50.180;9.230;2023-04-15T20:10:03;10.40;99.90
4451;DHT22;2238;50.180;9.230;2023-04-15T20:13:04;8.40;99.90
4451;DHT22;2238;50.180;9.230;2023-04-15T20:16:05;10.40;99.90
4451;DHT22;2238;50.180;9.230;2023-04-15T20:19:06;8.50;99.90
4451;DHT22;2238;50.180;9.230;2023-04-15T20:22:07;8.40;99.90
4451;DHT22;2238;50.180;9.230;2023-04-15T20:25:08;8.40;99.90
4451;DHT22;2238;50.180;9.230;2023-04-15T20:28:09;8.50;99.90